Time;durP1;ratioP1;P1;durP2;ratioP2;P2;SDS_P1;SDS_P2;PMS_P1;PMS_P2;Temp;Humidity;BMP_temperature;BMP_pressure;BME280_temperature;BME280_humidity;BME280_pressure;Samples;Min_cycle;Max_cycle;Signal;HPM_P1;HPM_P2
2022/11/12 00:01:22;;;;;;;103.63;99.07;;;16.00;95.90;;;;;;4860558;29;20044;-80
2022/11/12 00:03:47;;;;;;;102.38;97.88;;;16.00;95.90;;;;;;4876049;29;20035;-79
2022/11/12 00:06:13;;;;;;;102.03;97.53;;;16.00;95.90;;;;;;4877113;29;20206;-80
2022/11/12 00:08:39;;;;;;;102.03;97.53;;;16.00;95.90;;;;;;4875995;29;20067;-80
2022/11/12 00:11:06;;;;;;;103.47;98.93;;;16.10;96.00;;;;;;4875518;29;20137;-79
2022/11/12 00:13:31;;;;;;;104.85;100.25;;;16.10;96.00;;;;;;4876956;29;20041;-80
2022/11/12 00:15:57;;;;;;;101.63;97.20;;;16.10;96.00;;;;;;4860273;29;20047;-80
2022/11/12 00:18:23;;;;;;;102.53;98.03;;;16.10;95.90;;;;;;4877015;29;20060;-80
2022/11/12 00:20:49;;;;;;;101.20;96.72;;;16.00;95.90;;;;;;4875721;29;20037;-80
2022/11/12 00:23:15;;;;;;;103.75;99.25;;;16.00;95.90;;;;;;4875504;29;20049;-80
2022/11/12 00:25:40;;;;;;;106.60;102.00;;;16.00;96.00;;;;;;4876762;29;20033;-80
2022/11/12 00:28:08;;;;;;;108.88;104.18;;;16.00;96.00;;;;;;4859838;29;20085;-80
2022/11/12 00:30:37;;;;;;;106.35;101.75;;;16.00;96.00;;;;;;4859988;29;20033;-80
2022/11/12 00:33:03;;;;;;;106.82;102.22;;;16.00;96.00;;;;;;4876697;29;20085;-80
2022/11/12 00:35:33;;;;;;;110.47;105.68;;;16.00;95.90;;;;;;4876668;29;20021;-80
2022/11/12 00:37:59;;;;;;;112.15;107.35;;;15.90;95.90;;;;;;4876915;29;20077;-80
2022/11/12 00:40:25;;;;;;;109.78;105.07;;;15.80;96.00;;;;;;4876566;29;20076;-79
2022/11/12 00:42:52;;;;;;;113.90;109.03;;;15.80;96.10;;;;;;4875329;29;20029;-80
2022/11/12 00:45:21;;;;;;;109.13;104.43;;;15.80;96.10;;;;;;4859730;29;20052;-78
2022/11/12 00:47:46;;;;;;;108.63;103.95;;;15.70;96.10;;;;;;4859594;29;20029;-78
2022/11/12 00:50:14;;;;;;;107.20;102.60;;;15.80;96.10;;;;;;4876333;29;20029;-77
2022/11/12 00:52:40;;;;;;;116.78;111.82;;;15.80;96.10;;;;;;4859466;29;20033;-77
2022/11/12 00:55:06;;;;;;;115.88;110.95;;;15.80;96.00;;;;;;4875927;29;20036;-77
2022/11/12 00:57:32;;;;;;;114.93;110.03;;;15.80;96.00;;;;;;4875054;29;20132;-78
2022/11/12 00:59:57;;;;;;;119.40;114.30;;;15.80;96.00;;;;;;4874394;29;20124;-77
2022/11/12 01:02:23;;;;;;;114.38;109.47;;;15.80;96.00;;;;;;4859277;29;20129;-76
2022/11/12 01:04:49;;;;;;;114.25;109.35;;;15.80;96.00;;;;;;4859106;29;20462;-77
2022/11/12 01:07:14;;;;;;;114.15;109.25;;;15.80;96.00;;;;;;4859135;29;20049;-77
2022/11/12 01:09:40;;;;;;;115.05;110.15;;;15.80;96.00;;;;;;4880988;29;20025;-80
2022/11/12 01:12:06;;;;;;;117.20;112.20;;;15.80;96.00;;;;;;4859865;29;20049;-80
2022/11/12 01:14:32;;;;;;;118.07;113.07;;;15.90;96.00;;;;;;4859386;29;20037;-80
2022/11/12 01:16:58;;;;;;;119.05;114.03;;;15.80;95.90;;;;;;4859265;29;20033;-80
2022/11/12 01:19:23;;;;;;;112.72;107.93;;;15.80;95.90;;;;;;4876154;29;20486;-80
2022/11/12 01:21:49;;;;;;;114.70;109.88;;;15.80;96.00;;;;;;4876094;29;20112;-81
2022/11/12 01:24:15;;;;;;;116.55;111.65;;;15.80;96.00;;;;;;4858910;29;20048;-80
2022/11/12 01:26:40;;;;;;;118.47;113.53;;;15.80;96.00;;;;;;4875878;29;20112;-81
2022/11/12 01:29:06;;;;;;;115.93;111.03;;;15.80;96.00;;;;;;4859246;29;20562;-80
2022/11/12 01:31:35;;;;;;;118.72;113.72;;;15.80;96.00;;;;;;4876026;29;20057;-80
2022/11/12 01:34:03;;;;;;;120.75;115.72;;;15.80;96.00;;;;;;4843685;29;20446;-81
2022/11/12 01:36:37;;;;;;;112.82;108.20;;;15.80;96.00;;;;;;4875590;29;20044;-81
2022/11/12 01:39:08;;;;;;;112.70;108.00;;;15.80;96.10;;;;;;4875704;29;20037;-80
2022/11/12 01:41:36;;;;;;;112.03;107.43;;;15.90;96.10;;;;;;4875432;29;20045;-80
2022/11/12 01:44:16;;;;;;;106.10;101.70;;;15.90;96.10;;;;;;4858676;29;20036;-81
2022/11/12 01:47:13;;;;;;;107.28;102.88;;;15.90;96.10;;;;;;4858610;29;20025;-81
2022/11/12 01:49:45;;;;;;;;;;;15.90;96.10;;;;;;4859121;29;20539;-81
2022/11/12 01:52:41;;;;;;;108.97;104.47;;;16.00;96.10;;;;;;4875634;29;19919;-81
2022/11/12 01:55:17;;;;;;;99.38;95.28;;;16.00;96.10;;;;;;4875308;29;20549;-82
2022/11/12 01:57:52;;;;;;;98.85;94.75;;;16.10;96.10;;;;;;4858518;29;20033;-81
2022/11/12 02:00:18;;;;;;;100.75;96.55;;;16.10;96.20;;;;;;4875156;29;20025;-80
2022/11/12 02:02:50;;;;;;;105.15;100.82;;;16.10;96.10;;;;;;4858328;29;20033;-81
2022/11/12 02:05:17;;;;;;;99.75;95.65;;;16.20;96.10;;;;;;4858210;29;20029;-81
2022/11/12 02:07:45;;;;;;;100.85;96.72;;;16.20;96.10;;;;;;4858348;29;20025;-80
2022/11/12 02:10:13;;;;;;;98.88;94.78;;;16.20;96.10;;;;;;4874635;29;20056;-80
2022/11/12 02:15:25;;;;;;;109.05;104.55;;;16.30;96.10;;;;;;4860939;29;20048;-80
2022/11/12 02:17:51;;;;;;;99.80;95.70;;;16.30;96.10;;;;;;4858103;29;20029;-80
2022/11/12 02:20:17;;;;;;;99.35;95.25;;;16.30;96.10;;;;;;4842857;29;20073;-80
2022/11/12 02:22:43;;;;;;;100.78;96.65;;;16.30;96.10;;;;;;4874661;29;20121;-81
2022/11/12 02:25:17;;;;;;;107.13;102.72;;;16.30;96.10;;;;;;4858215;29;20043;-81
2022/11/12 02:27:44;;;;;;;110.97;106.38;;;16.40;96.10;;;;;;4874603;29;20025;-81
2022/11/12 02:30:10;;;;;;;110.65;106.10;;;16.40;96.10;;;;;;4874671;29;20029;-80
2022/11/12 02:32:36;;;;;;;98.60;94.68;;;16.40;96.10;;;;;;4874893;29;20041;-80
2022/11/12 02:35:01;;;;;;;103.45;99.25;;;16.30;96.10;;;;;;4874260;29;20394;-80
2022/11/12 02:37:27;;;;;;;110.65;106.10;;;16.30;96.10;;;;;;4857781;29;20076;-80
2022/11/12 02:39:53;;;;;;;93.18;89.47;;;16.30;96.10;;;;;;4857800;29;20047;-80
2022/11/12 02:42:18;;;;;;;89.65;86.05;;;16.30;96.10;;;;;;4842055;29;20468;-80
2022/11/12 02:44:44;;;;;;;98.82;94.82;;;16.20;96.10;;;;;;4857374;29;20029;-74
2022/11/12 02:47:10;;;;;;;97.97;93.97;;;16.30;96.10;;;;;;4874093;29;20037;-75
2022/11/12 02:49:35;;;;;;;91.35;87.65;;;16.30;96.10;;;;;;4857403;29;20196;-75
2022/11/12 02:52:01;;;;;;;96.60;92.70;;;16.30;96.10;;;;;;4857430;29;20049;-75
2022/11/12 02:54:27;;;;;;;95.95;92.15;;;16.30;96.10;;;;;;4857264;29;20037;-75
2022/11/12 02:56:52;;;;;;;94.43;90.63;;;16.30;96.10;;;;;;4857375;29;20097;-75
2022/11/12 02:59:18;;;;;;;94.07;90.28;;;16.30;96.10;;;;;;4857354;29;20033;-75
2022/11/12 03:01:44;;;;;;;95.88;91.97;;;16.20;96.10;;;;;;4874245;29;20037;-75
2022/11/12 03:04:09;;;;;;;93.22;89.47;;;16.20;96.10;;;;;;4873865;29;20040;-75
2022/11/12 03:06:35;;;;;;;97.30;93.40;;;16.20;96.10;;;;;;4841805;29;20045;-77
2022/11/12 03:09:01;;;;;;;93.63;89.82;;;16.10;96.10;;;;;;4857092;29;20036;-77
2022/11/12 03:11:26;;;;;;;95.38;91.55;;;16.10;96.10;;;;;;4873794;29;20471;-77
2022/11/12 03:13:52;;;;;;;98.60;94.63;;;16.10;96.10;;;;;;4857371;29;20112;-77
2022/11/12 03:16:18;;;;;;;93.90;90.10;;;16.00;96.10;;;;;;4857259;29;20041;-77
2022/11/12 03:18:43;;;;;;;98.65;94.65;;;16.00;96.10;;;;;;4873873;29;20045;-77
2022/11/12 03:21:09;;;;;;;103.78;99.57;;;16.00;96.10;;;;;;4874316;29;20098;-77
2022/11/12 03:23:35;;;;;;;103.30;99.10;;;15.90;96.10;;;;;;4873497;29;20498;-77
2022/11/12 03:26:04;;;;;;;97.90;93.90;;;15.90;96.10;;;;;;4873744;29;20032;-77
2022/11/12 03:28:30;;;;;;;97.68;93.75;;;15.80;96.10;;;;;;4856931;29;20044;-77
2022/11/12 03:30:57;;;;;;;;;;;15.80;96.20;;;;;;4874278;29;20035;-77
2022/11/12 03:33:23;;;;;;;98.70;94.70;;;15.80;96.20;;;;;;4856915;29;20091;-77
2022/11/12 03:35:48;;;;;;;99.00;95.00;;;15.70;96.20;;;;;;4856854;29;20163;-77
2022/11/12 03:38:14;;;;;;;93.75;89.95;;;15.70;96.20;;;;;;4856907;29;20041;-77
2022/11/12 03:40:40;;;;;;;95.90;92.00;;;15.70;96.20;;;;;;4841739;29;20100;-77
2022/11/12 03:43:06;;;;;;;89.38;85.78;;;15.70;96.20;;;;;;4872208;29;20049;-77
2022/11/12 03:45:31;;;;;;;93.88;90.07;;;15.70;96.20;;;;;;4857055;29;20037;-77
2022/11/12 03:47:58;;;;;;;95.03;91.18;;;15.70;96.20;;;;;;4873626;29;20112;-77
2022/11/12 03:50:25;;;;;;;;;;;15.70;96.20;;;;;;4874015;29;20060;-77
2022/11/12 03:52:55;;;;;;;91.85;88.15;;;15.70;96.20;;;;;;4874160;29;19908;-80
2022/11/12 03:55:23;;;;;;;92.28;88.53;;;15.70;96.20;;;;;;4856801;29;20460;-81
2022/11/12 03:57:50;;;;;;;91.68;87.97;;;15.70;96.20;;;;;;4872337;29;20025;-80
2022/11/12 04:00:16;;;;;;;96.03;92.13;;;15.70;96.20;;;;;;4857022;29;20048;-81
2022/11/12 04:02:42;;;;;;;93.20;89.45;;;15.70;96.20;;;;;;4873222;29;20030;-75
2022/11/12 04:10:49;;;;;;;88.70;85.10;;;15.70;96.20;;;;;;4873916;29;20517;-78
2022/11/12 04:13:27;;;;;;;95.30;91.50;;;15.60;96.10;;;;;;4856946;29;20041;-79
2022/11/12 04:21:50;;;;;;;80.68;77.47;;;15.70;96.20;;;;;;4859425;29;20774;-79
2022/11/12 04:27:29;;;;;;;84.53;81.18;;;15.70;96.20;;;;;;4874186;29;20041;-79
2022/11/12 04:32:46;;;;;;;73.43;70.53;;;15.70;96.20;;;;;;4859648;29;20040;-79
2022/11/12 04:35:12;;;;;;;71.78;68.97;;;15.70;96.10;;;;;;4874368;29;20036;-79
2022/11/12 04:37:44;;;;;;;72.75;69.95;;;15.70;96.10;;;;;;4860016;29;20032;-78
2022/11/12 04:45:44;;;;;;;66.82;64.22;;;15.70;96.20;;;;;;4876922;29;20056;-79
2022/11/12 04:48:09;;;;;;;72.50;69.65;;;15.70;96.20;;;;;;4860036;29;20047;-79
2022/11/12 04:50:36;;;;;;;77.80;74.80;;;15.70;96.20;;;;;;4859756;29;20521;-79
2022/11/12 04:53:02;;;;;;;76.18;73.20;;;15.70;96.10;;;;;;4859813;29;20037;-79
2022/11/12 04:55:27;;;;;;;69.20;66.50;;;15.70;96.10;;;;;;4876438;29;20470;-79
2022/11/12 04:57:53;;;;;;;66.80;64.20;;;15.70;96.20;;;;;;4859915;29;20124;-79
2022/11/12 05:00:19;;;;;;;70.18;67.47;;;15.70;96.10;;;;;;4876407;29;20033;-78
2022/11/12 05:02:44;;;;;;;71.10;68.30;;;15.70;96.20;;;;;;4876222;29;20057;-79
2022/11/12 05:05:10;;;;;;;67.10;64.50;;;15.70;96.20;;;;;;4844268;29;20025;-79
2022/11/12 05:07:36;;;;;;;65.30;62.80;;;15.70;96.10;;;;;;4876286;29;20426;-79
2022/11/12 05:10:02;;;;;;;66.05;63.50;;;15.70;96.20;;;;;;4876181;29;20037;-80
2022/11/12 05:12:27;;;;;;;65.60;63.10;;;15.70;96.20;;;;;;4875785;29;20060;-80
2022/11/12 05:14:53;;;;;;;65.38;62.88;;;15.70;96.10;;;;;;4859322;29;20394;-81
2022/11/12 05:17:19;;;;;;;66.88;64.28;;;15.70;96.10;;;;;;4859363;29;20360;-80
2022/11/12 05:19:44;;;;;;;65.75;63.22;;;15.70;96.10;;;;;;4843584;29;20037;-77
2022/11/12 05:22:10;;;;;;;76.28;73.38;;;15.70;96.10;;;;;;4875804;29;20513;-77
2022/11/12 05:24:41;;;;;;;68.45;65.85;;;15.80;96.10;;;;;;4875604;29;20093;-77
2022/11/12 05:27:16;;;;;;;68.13;65.53;;;15.70;96.10;;;;;;4858908;29;20478;-77
2022/11/12 05:29:42;;;;;;;66.45;63.95;;;15.70;96.10;;;;;;4875794;29;20029;-77
2022/11/12 05:32:10;;;;;;;67.70;65.10;;;15.70;96.10;;;;;;4875668;29;20153;-77
2022/11/12 05:34:36;;;;;;;64.10;61.65;;;15.70;96.10;;;;;;4875659;29;20041;-77
2022/11/12 05:37:03;;;;;;;66.60;64.03;;;15.70;96.10;;;;;;4858720;29;20086;-77
2022/11/12 05:39:29;;;;;;;62.85;60.45;;;15.70;96.10;;;;;;4875499;29;20034;-77
2022/11/12 05:41:55;;;;;;;63.90;61.45;;;15.70;96.10;;;;;;4843498;29;20046;-77
2022/11/12 05:44:21;;;;;;;62.88;60.47;;;15.70;96.10;;;;;;4875060;29;20097;-77
2022/11/12 05:46:47;;;;;;;62.83;60.42;;;15.70;96.10;;;;;;4875140;29;20097;-77
2022/11/12 05:49:13;;;;;;;65.18;62.67;;;15.70;96.10;;;;;;4858727;29;20033;-77
2022/11/12 05:51:39;;;;;;;65.93;63.42;;;15.60;96.10;;;;;;4875219;29;20049;-78
2022/11/12 05:54:05;;;;;;;63.05;60.65;;;15.70;96.10;;;;;;4858534;29;20048;-77
2022/11/12 05:56:31;;;;;;;;;;;15.60;96.10;;;;;;4858835;29;20567;-77
2022/11/12 05:58:56;;;;;;;56.20;54.10;;;15.60;96.10;;;;;;4843087;29;20014;-77
2022/11/12 06:01:23;;;;;;;55.80;53.70;;;15.60;96.10;;;;;;4858335;29;20109;-77
2022/11/12 06:03:48;;;;;;;56.83;54.65;;;15.60;96.10;;;;;;4875020;29;20041;-77
2022/11/12 06:06:14;;;;;;;55.60;53.50;;;15.60;96.10;;;;;;4874920;29;20398;-77
2022/11/12 06:08:40;;;;;;;51.97;49.97;;;15.60;96.10;;;;;;4874966;29;20116;-77
2022/11/12 06:11:05;;;;;;;54.95;52.85;;;15.60;96.10;;;;;;4858119;29;20049;-78
2022/11/12 06:13:32;;;;;;;56.90;54.70;;;15.60;96.10;;;;;;4858298;29;20060;-77
2022/11/12 06:15:58;;;;;;;57.38;55.17;;;15.60;96.10;;;;;;4874887;29;20045;-78
2022/11/12 06:18:24;;;;;;;55.72;53.63;;;15.60;96.10;;;;;;4842916;29;20089;-77
2022/11/12 06:23:35;;;;;;;56.95;54.75;;;15.60;96.10;;;;;;4874884;29;20028;-77
2022/11/12 06:26:01;;;;;;;55.55;53.45;;;15.50;96.00;;;;;;4874634;29;20029;-77
2022/11/12 06:28:27;;;;;;;57.60;55.40;;;15.50;96.10;;;;;;4858287;29;20397;-77
2022/11/12 06:30:52;;;;;;;57.33;55.13;;;15.50;96.00;;;;;;4874500;29;20113;-77
2022/11/12 06:33:18;;;;;;;57.60;55.40;;;15.50;96.00;;;;;;4874394;29;20482;-77
2022/11/12 06:35:44;;;;;;;55.65;53.55;;;15.40;96.00;;;;;;4873374;29;20041;-77
2022/11/12 06:38:10;;;;;;;52.92;50.92;;;15.30;96.10;;;;;;4874591;29;20234;-76
2022/11/12 06:40:35;;;;;;;55.63;53.53;;;15.30;96.10;;;;;;4857704;29;20124;-76
2022/11/12 06:43:01;;;;;;;53.10;51.10;;;15.30;96.10;;;;;;4874444;29;20064;-76
2022/11/12 06:45:27;;;;;;;54.47;52.40;;;15.30;96.10;;;;;;4857552;29;20041;-76
2022/11/12 06:47:56;;;;;;;53.60;51.60;;;15.30;96.10;;;;;;4857527;29;20032;-76
2022/11/12 06:50:22;;;;;;;50.72;48.83;;;15.20;96.10;;;;;;4857523;29;20546;-76
2022/11/12 06:52:48;;;;;;;54.00;52.00;;;15.30;96.20;;;;;;4857546;29;20040;-77
2022/11/12 06:55:14;;;;;;;52.60;50.60;;;15.30;96.20;;;;;;4874174;29;20037;-76
2022/11/12 06:57:39;;;;;;;52.55;50.55;;;15.30;96.10;;;;;;4857021;29;20035;-77
2022/11/12 07:00:06;;;;;;;52.20;50.20;;;15.30;96.10;;;;;;4857218;29;20131;-81
2022/11/12 07:02:31;;;;;;;52.15;50.15;;;15.30;96.10;;;;;;4857939;29;20041;-80
2022/11/12 07:04:57;;;;;;;54.10;52.08;;;15.30;96.10;;;;;;4874017;29;20033;-81
2022/11/12 07:07:23;;;;;;;52.75;50.75;;;15.30;96.10;;;;;;4842090;29;20242;-81
2022/11/12 07:09:48;;;;;;;56.20;54.10;;;15.40;96.10;;;;;;4874177;29;20060;-81
2022/11/12 07:12:14;;;;;;;54.65;52.55;;;15.40;96.10;;;;;;4857241;29;20057;-80
2022/11/12 07:14:40;;;;;;;54.92;52.83;;;15.40;96.10;;;;;;4873893;29;20120;-80
2022/11/12 07:17:05;;;;;;;57.78;55.58;;;15.40;96.10;;;;;;4857413;29;20048;-80
2022/11/12 07:19:31;;;;;;;56.22;54.10;;;15.40;96.10;;;;;;4874095;29;20037;-81
2022/11/12 07:21:57;;;;;;;59.13;56.83;;;15.40;96.10;;;;;;4857117;29;20187;-80
2022/11/12 07:24:22;;;;;;;60.95;58.65;;;15.40;96.10;;;;;;4873855;29;20048;-81
2022/11/12 07:26:48;;;;;;;61.05;58.75;;;15.40;96.10;;;;;;4841746;29;20483;-81
2022/11/12 07:29:14;;;;;;;60.10;57.80;;;15.50;96.10;;;;;;4841667;29;20119;-74
2022/11/12 07:31:39;;;;;;;56.30;54.20;;;15.50;96.00;;;;;;4856559;29;20041;-75
2022/11/12 07:34:05;;;;;;;54.03;51.95;;;15.50;96.00;;;;;;4873429;29;20033;-75
2022/11/12 07:36:31;;;;;;;54.45;52.35;;;15.50;96.10;;;;;;4841418;29;20557;-75
2022/11/12 07:38:56;;;;;;;54.67;52.58;;;15.50;96.10;;;;;;4841853;29;20029;-75
2022/11/12 07:41:23;;;;;;;56.63;54.42;;;15.50;96.10;;;;;;4841433;29;20127;-75
2022/11/12 07:43:52;;;;;;;53.72;51.67;;;15.50;96.10;;;;;;4856703;29;20036;-75
2022/11/12 07:46:26;;;;;;;54.42;52.33;;;15.50;96.10;;;;;;4856954;29;20036;-75
2022/11/12 07:48:53;;;;;;;54.58;52.47;;;15.50;96.10;;;;;;4873501;29;20109;-75
2022/11/12 07:51:20;;;;;;;55.08;52.97;;;15.50;96.10;;;;;;4873960;29;20382;-75
2022/11/12 07:53:47;;;;;;;54.53;52.42;;;15.50;96.10;;;;;;4873348;29;20435;-75
2022/11/12 07:56:18;;;;;;;54.78;52.67;;;15.40;96.10;;;;;;4856879;29;20076;-75
2022/11/12 07:58:44;;;;;;;54.65;52.55;;;15.40;96.00;;;;;;4873535;29;20040;-75
2022/11/12 08:01:32;;;;;;;56.08;53.97;;;15.40;96.10;;;;;;4856458;29;20029;-74
2022/11/12 08:03:59;;;;;;;52.60;50.60;;;15.40;96.10;;;;;;4856723;29;20402;-74
2022/11/12 08:06:26;;;;;;;55.50;53.40;;;15.40;96.10;;;;;;4856839;29;20068;-75
2022/11/12 08:08:56;;;;;;;54.22;52.15;;;15.30;96.00;;;;;;4841579;29;20088;-74
2022/11/12 08:11:22;;;;;;;55.55;53.45;;;15.40;96.30;;;;;;4875597;29;20049;-75
2022/11/12 08:13:48;;;;;;;;;;;15.40;96.10;;;;;;4877330;29;20033;-75
2022/11/12 08:16:14;;;;;;;51.63;49.63;;;15.40;96.10;;;;;;4860204;29;20288;-75
2022/11/12 08:18:40;;;;;;;;;;;15.40;96.00;;;;;;4877218;29;20089;-74
2022/11/12 08:21:09;;;;;;;53.03;51.03;;;15.30;96.00;;;;;;4876746;29;19912;-75
2022/11/12 08:23:35;;;;;;;49.85;47.95;;;15.30;96.00;;;;;;4876603;29;20033;-76
2022/11/12 08:26:03;;;;;;;49.72;47.83;;;15.30;96.00;;;;;;4876405;29;20035;-77
2022/11/12 08:28:29;;;;;;;47.65;45.85;;;15.30;96.00;;;;;;4876054;29;20029;-76
2022/11/12 08:30:56;;;;;;;47.47;45.67;;;15.30;96.00;;;;;;4876884;29;20033;-77
2022/11/12 08:33:22;;;;;;;51.50;49.60;;;15.30;96.00;;;;;;4876580;29;20037;-76
2022/11/12 08:35:48;;;;;;;49.70;47.80;;;15.30;96.00;;;;;;4876283;29;20395;-77
2022/11/12 08:38:15;;;;;;;50.15;48.25;;;15.30;96.00;;;;;;4859661;29;20169;-76
2022/11/12 08:40:41;;;;;;;50.78;48.88;;;15.30;96.10;;;;;;4876470;29;20037;-77
2022/11/12 08:43:09;;;;;;;50.80;48.90;;;15.30;96.00;;;;;;4859440;29;20043;-77
2022/11/12 08:45:36;;;;;;;48.63;46.83;;;15.30;96.00;;;;;;4859568;29;20586;-76
2022/11/12 08:48:05;;;;;;;48.55;46.75;;;15.30;96.00;;;;;;4876191;29;20680;-77
2022/11/12 08:50:32;;;;;;;51.50;49.55;;;15.20;96.00;;;;;;4875946;29;20033;-76
2022/11/12 08:53:06;;;;;;;52.53;50.53;;;15.30;96.00;;;;;;4875934;29;20033;-76
2022/11/12 08:55:32;;;;;;;53.05;51.05;;;15.20;96.00;;;;;;4859117;29;20164;-76
2022/11/12 08:58:00;;;;;;;;;;;15.20;96.00;;;;;;4876120;29;20112;-77
2022/11/12 09:00:38;;;;;;;53.40;51.40;;;15.30;96.00;;;;;;4875913;29;19916;-76
2022/11/12 09:03:06;;;;;;;53.22;51.22;;;15.30;95.90;;;;;;4875979;29;20033;-76
2022/11/12 09:05:34;;;;;;;53.13;51.13;;;15.30;95.90;;;;;;4875650;29;20387;-76
2022/11/12 09:08:08;;;;;;;52.67;50.67;;;15.30;95.90;;;;;;4858293;29;20025;-76
2022/11/12 09:10:35;;;;;;;53.15;51.15;;;15.30;95.90;;;;;;4875079;29;20049;-76
2022/11/12 09:13:01;;;;;;;53.28;51.28;;;15.30;95.90;;;;;;4875193;29;20490;-77
2022/11/12 09:15:28;;;;;;;52.28;50.28;;;15.30;95.90;;;;;;4875306;29;20060;-77
2022/11/12 09:17:58;;;;;;;50.35;48.45;;;15.30;95.90;;;;;;4875529;29;20030;-77
2022/11/12 09:20:27;;;;;;;51.30;49.40;;;15.30;95.90;;;;;;4875248;29;20036;-77
2022/11/12 09:22:53;;;;;;;50.90;49.00;;;15.30;96.20;;;;;;4858668;29;20383;-77
2022/11/12 09:25:19;;;;;;;49.92;48.03;;;15.30;96.00;;;;;;4876247;29;20097;-77
2022/11/12 09:27:45;;;;;;;52.17;50.17;;;15.30;96.00;;;;;;4859403;29;20033;-77
2022/11/12 09:30:11;;;;;;;50.42;48.53;;;15.30;96.00;;;;;;4875595;29;20132;-76
2022/11/12 09:32:36;;;;;;;50.80;48.90;;;15.30;96.00;;;;;;4875249;29;20101;-77
2022/11/12 09:35:02;;;;;;;50.63;48.72;;;15.30;96.00;;;;;;4875076;29;20048;-77
2022/11/12 09:37:28;;;;;;;50.75;48.85;;;15.30;96.00;;;;;;4874856;29;20128;-77
2022/11/12 09:39:54;;;;;;;48.38;46.58;;;15.30;96.00;;;;;;4875312;29;20053;-77
2022/11/12 09:42:21;;;;;;;45.75;44.05;;;15.30;96.00;;;;;;4858580;29;20033;-77
2022/11/12 09:44:59;;;;;;;49.13;47.28;;;15.30;96.00;;;;;;4874865;29;20120;-77
2022/11/12 09:47:42;;;;;;;48.38;46.58;;;15.30;96.00;;;;;;4874967;29;20036;-76
2022/11/12 09:50:23;;;;;;;45.13;43.42;;;15.30;96.00;;;;;;4875048;29;20470;-79
2022/11/12 09:52:55;;;;;;;47.63;45.83;;;15.30;96.00;;;;;;4873794;29;20090;-79
2022/11/12 09:55:48;;;;;;;45.25;43.55;;;15.30;96.20;;;;;;4857723;29;20115;-82
2022/11/12 09:58:16;;;;;;;46.15;44.45;;;15.30;96.00;;;;;;4873617;29;20089;-83
2022/11/12 10:00:54;;;;;;;41.08;39.58;;;15.30;96.00;;;;;;4876356;29;20032;-81
2022/11/12 10:03:41;;;;;;;42.22;40.63;;;15.30;96.00;;;;;;4876548;29;20033;-78
2022/11/12 10:06:18;;;;;;;;;;;15.40;96.00;;;;;;4876553;29;20021;-79
2022/11/12 10:08:53;;;;;;;43.08;41.47;;;15.40;96.10;;;;;;4876300;29;19998;-78
2022/11/12 10:14:57;;;;;;;44.65;42.95;;;15.50;96.00;;;;;;4876831;29;20066;-78
2022/11/12 10:17:43;;;;;;;40.72;39.22;;;15.50;96.00;;;;;;4876711;29;20049;-79
2022/11/12 10:20:43;;;;;;;38.83;37.33;;;15.60;96.00;;;;;;4876056;29;20101;-77
2022/11/12 10:23:28;;;;;;;40.90;39.40;;;15.60;96.00;;;;;;4873311;29;20048;-77
2022/11/12 10:25:58;;;;;;;38.33;36.92;;;15.60;95.90;;;;;;4876118;29;20029;-74
2022/11/12 10:28:38;;;;;;;38.50;37.10;;;15.70;95.90;;;;;;4872967;29;20544;-75
2022/11/12 10:31:14;;;;;;;37.85;36.45;;;15.70;96.00;;;;;;4854803;29;20033;-77
2022/11/12 10:33:40;;;;;;;35.10;33.80;;;15.80;96.10;;;;;;4853787;29;20032;-78
2022/11/12 10:36:21;;;;;;;36.05;34.65;;;15.90;96.00;;;;;;4857471;29;20029;-79
2022/11/12 10:38:51;;;;;;;37.03;35.63;;;16.00;96.00;;;;;;4862331;29;20028;-79
2022/11/12 10:41:31;;;;;;;35.70;34.40;;;16.00;95.90;;;;;;4867189;29;20025;-76
2022/11/12 10:44:02;;;;;;;34.35;33.05;;;16.00;96.00;;;;;;4871625;29;20048;-76
2022/11/12 10:46:29;;;;;;;33.58;32.28;;;16.10;96.00;;;;;;4852610;29;20402;-79
2022/11/12 10:49:04;;;;;;;33.75;32.45;;;16.20;96.00;;;;;;4875216;29;20029;-76
2022/11/12 10:51:35;;;;;;;32.97;31.75;;;16.30;96.00;;;;;;4864501;29;20100;-76
2022/11/12 10:54:51;;;;;;;33.85;32.55;;;16.30;95.90;;;;;;4853733;29;20400;-77
2022/11/12 10:57:22;;;;;;;29.02;27.92;;;16.40;95.90;;;;;;4819423;29;20033;-78
2022/11/12 11:00:15;;;;;;;30.25;29.10;;;16.50;95.80;;;;;;4857006;29;20093;-80
2022/11/12 11:02:50;;;;;;;29.25;28.15;;;16.50;95.80;;;;;;4857192;29;20117;-75
2022/11/12 11:05:34;;;;;;;32.88;31.67;;;16.50;95.80;;;;;;4857388;29;20526;-79
2022/11/12 11:08:01;;;;;;;34.17;32.88;;;16.50;95.70;;;;;;4840447;29;20030;-76
2022/11/12 11:10:33;;;;;;;29.73;28.63;;;16.40;95.70;;;;;;4856741;29;20081;-79
2022/11/12 11:13:21;;;;;;;31.58;30.38;;;16.30;95.70;;;;;;4856403;29;20440;-76
2022/11/12 11:16:09;;;;;;;31.88;30.67;;;16.30;95.90;;;;;;4856331;29;20112;-79
2022/11/12 11:18:37;;;;;;;31.20;30.00;;;16.20;95.80;;;;;;4856679;29;20517;-78
2022/11/12 11:21:12;;;;;;;30.77;29.58;;;16.20;95.70;;;;;;4839726;29;20124;-78
2022/11/12 11:24:20;;;;;;;34.25;32.95;;;16.10;95.80;;;;;;4856994;29;20064;-79
2022/11/12 11:26:51;;;;;;;19.73;18.92;;;16.10;96.00;;;;;;4856785;29;20459;-80
2022/11/12 11:29:29;;;;;;;11.63;11.13;;;16.50;96.90;;;;;;4855667;29;20030;-79
2022/11/12 11:32:03;;;;;;;7.50;7.10;;;17.50;97.60;;;;;;4855990;29;20037;-80
2022/11/12 11:34:42;;;;;;;5.65;5.35;;;18.70;97.60;;;;;;4856021;29;20059;-77
2022/11/12 11:37:29;;;;;;;4.93;4.63;;;19.30;96.90;;;;;;4856202;29;20084;-78
2022/11/12 11:40:00;;;;;;;;;;;19.50;96.20;;;;;;4855557;29;20037;-78
2022/11/12 11:42:37;;;;;;;10.13;9.63;;;19.10;95.70;;;;;;4856102;29;19912;-76
2022/11/12 11:45:26;;;;;;;12.77;12.18;;;18.50;95.50;;;;;;4857465;29;20475;-78
2022/11/12 11:48:24;;;;;;;17.13;16.42;;;17.90;95.60;;;;;;4859994;29;20025;-79
2022/11/12 11:51:20;;;;;;;20.58;19.77;;;17.40;95.70;;;;;;4843935;29;20367;-78
2022/11/12 11:53:51;;;;;;;20.55;19.75;;;17.00;95.90;;;;;;4860452;29;20100;-77
2022/11/12 11:56:25;;;;;;;21.13;20.33;;;16.80;96.10;;;;;;4859344;29;20036;-77
2022/11/12 11:59:30;;;;;;;25.27;24.27;;;16.70;96.20;;;;;;4859926;29;20126;-77
2022/11/12 12:01:58;;;;;;;21.77;20.88;;;16.60;96.10;;;;;;4858595;29;20041;-76
2022/11/12 12:04:46;;;;;;;22.92;22.02;;;16.60;96.10;;;;;;4842946;29;20061;-74
2022/11/12 12:07:31;;;;;;;23.20;22.30;;;16.70;96.30;;;;;;4860184;29;20036;-75
2022/11/12 12:10:24;;;;;;;22.67;21.77;;;16.80;96.10;;;;;;4860206;29;20026;-75
2022/11/12 12:13:25;;;;;;;22.98;22.08;;;16.80;96.10;;;;;;4859927;29;20062;-74
2022/11/12 12:16:18;;;;;;;22.40;21.50;;;16.90;96.00;;;;;;4856001;29;20120;-76
2022/11/12 12:19:34;;;;;;;22.55;21.65;;;16.90;95.90;;;;;;4869616;29;20033;-76
2022/11/12 12:22:02;;;;;;;22.58;21.67;;;16.90;95.90;;;;;;4822018;29;20105;-75
2022/11/12 12:24:34;;;;;;;21.48;20.60;;;16.90;95.80;;;;;;4850839;29;20055;-74
2022/11/12 12:27:30;;;;;;;23.73;22.83;;;16.80;95.80;;;;;;4863565;29;20029;-75
2022/11/12 12:30:18;;;;;;;21.58;20.70;;;16.80;95.80;;;;;;4841769;29;20065;-77
2022/11/12 12:32:54;;;;;;;24.13;23.23;;;16.70;95.90;;;;;;4856315;29;20037;-77
2022/11/12 12:35:32;;;;;;;22.55;21.65;;;16.70;95.80;;;;;;4866841;29;20032;-76
2022/11/12 12:38:20;;;;;;;22.90;22.00;;;16.60;95.70;;;;;;4877337;29;20097;-76
2022/11/12 12:41:00;;;;;;;23.58;22.67;;;16.50;96.00;;;;;;4863397;29;20056;-71
2022/11/12 12:43:54;;;;;;;23.60;22.70;;;16.40;95.80;;;;;;4860900;29;20119;-77
2022/11/12 12:46:23;;;;;;;18.73;17.92;;;16.40;95.90;;;;;;4840063;29;20136;-76
2022/11/12 12:48:52;;;;;;;17.85;17.15;;;16.30;95.80;;;;;;4877409;29;20558;-78
2022/11/12 12:51:19;;;;;;;19.48;18.67;;;16.30;95.90;;;;;;4877598;29;20029;-76
2022/11/12 12:53:45;;;;;;;16.63;15.93;;;16.30;95.80;;;;;;4876172;29;20162;-75
2022/11/12 12:56:13;;;;;;;16.20;15.50;;;16.30;95.80;;;;;;4859759;29;20127;-76
2022/11/12 12:58:39;;;;;;;16.98;16.27;;;16.20;95.80;;;;;;4877781;29;20068;-77
2022/11/12 13:01:19;;;;;;;17.88;17.17;;;16.20;95.90;;;;;;4860855;29;20061;-76
2022/11/12 13:03:56;;;;;;;19.38;18.58;;;16.20;95.90;;;;;;4860229;29;20067;-77
2022/11/12 13:06:21;;;;;;;;;;;16.10;95.90;;;;;;4877669;29;20061;-77
2022/11/12 13:08:51;;;;;;;20.73;19.92;;;16.20;95.90;;;;;;4876811;29;19907;-76
2022/11/12 13:14:30;;;;;;;20.08;19.27;;;16.20;95.80;;;;;;4876529;29;20092;-78
2022/11/12 13:17:00;;;;;;;20.33;19.52;;;16.20;95.80;;;;;;4877151;29;20040;-78
2022/11/12 13:19:28;;;;;;;22.35;21.45;;;16.20;95.80;;;;;;4877144;29;20040;-79